Time;durP1;ratioP1;P1;durP2;ratioP2;P2;SDS_P1;SDS_P2;PMS_P1;PMS_P2;Temp;Humidity;BMP_temperature;BMP_pressure;BME280_temperature;BME280_humidity;BME280_pressure;Samples;Min_cycle;Max_cycle;Signal;HPM_P1;HPM_P2
2022/11/23 00:01:45;;;;;;;3.15;0.60;;;;;;;16.22;49.03;99433.69;4967373;28;20408;-62
2022/11/23 00:04:12;;;;;;;1.42;0.65;;;;;;;16.26;49.12;99434.97;4975455;28;20038;-62
2022/11/23 00:06:37;;;;;;;2.85;1.00;;;;;;;16.29;49.78;99433.75;4969575;28;20412;-62
2022/11/23 00:09:03;;;;;;;5.63;1.05;;;;;;;16.30;49.85;99430.03;4985265;28;20073;-63
2022/11/23 00:11:29;;;;;;;4.78;0.60;;;;;;;16.31;48.36;99442.47;4977063;28;20022;-62
2022/11/23 00:13:54;;;;;;;7.28;0.52;;;;;;;16.31;48.45;99442.47;4976603;28;20088;-63
2022/11/23 00:16:25;;;;;;;7.53;0.68;;;;;;;16.32;48.71;99444.16;4985853;28;20401;-62
2022/11/23 00:18:52;;;;;;;7.40;1.35;;;;;;;16.30;49.42;99436.25;4982438;28;20031;-62
2022/11/23 00:21:19;;;;;;;2.00;0.70;;;;;;;16.31;49.50;99445.19;4975858;28;20109;-62
2022/11/23 00:23:44;;;;;;;2.50;1.08;;;;;;;16.29;49.02;99433.75;4966567;28;20495;-62
2022/11/23 00:26:11;;;;;;;4.03;1.02;;;;;;;16.28;49.26;99440.19;4984515;28;20023;-63
2022/11/23 00:28:39;;;;;;;4.22;1.10;;;;;;;16.20;49.47;99424.13;4992002;28;20035;-62
2022/11/23 00:31:06;;;;;;;5.18;0.80;;;;;;;16.22;48.15;99435.56;4988749;28;20050;-62
2022/11/23 00:33:31;;;;;;;7.80;0.80;;;;;;;16.19;49.19;99433.28;4978967;28;20404;-62
2022/11/23 00:36:06;;;;;;;6.07;0.98;;;;;;;16.17;48.38;99441.56;4979221;28;20026;-62
2022/11/23 00:38:32;;;;;;;4.07;0.60;;;;;;;16.13;49.06;99450.28;4995849;28;20046;-62
2022/11/23 00:41:05;;;;;;;4.03;0.77;;;;;;;16.13;48.94;99453.00;4978958;28;20038;-62
2022/11/23 00:43:31;;;;;;;5.20;1.50;;;;;;;16.09;49.26;99462.50;4994636;28;20034;-62
2022/11/23 00:46:14;;;;;;;7.35;0.80;;;;;;;16.06;49.85;99454.81;4978276;28;20045;-62
2022/11/23 00:48:40;;;;;;;4.22;0.57;;;;;;;16.05;49.07;99453.97;4994376;28;20065;-62
2022/11/23 00:51:08;;;;;;;3.20;0.65;;;;;;;16.05;49.62;99451.25;4994773;28;20030;-62
2022/11/23 00:53:34;;;;;;;1.75;0.60;;;;;;;16.07;49.09;99456.47;4978281;28;20408;-62
2022/11/23 00:56:00;;;;;;;6.40;0.70;;;;;;;16.05;49.64;99459.38;4994669;28;20503;-63
2022/11/23 00:58:26;;;;;;;5.13;0.70;;;;;;;16.05;49.41;99458.56;4978465;28;20038;-62
2022/11/23 01:01:19;;;;;;;4.43;0.93;;;;;;;16.09;48.19;99454.41;4978507;28;20484;-62
2022/11/23 01:03:48;;;;;;;2.70;1.35;;;;;;;16.12;49.75;99454.00;4994916;28;20057;-62
2022/11/23 01:06:16;;;;;;;4.68;0.95;;;;;;;16.15;49.51;99459.03;4994407;28;20029;-62
2022/11/23 01:08:42;;;;;;;3.45;0.47;;;;;;;16.15;48.01;99469.81;4994489;28;20476;-62
2022/11/23 01:11:10;;;;;;;6.35;1.20;;;;;;;16.18;48.08;99464.03;4994050;28;20037;-62
2022/11/23 01:13:37;;;;;;;4.95;1.02;;;;;;;16.17;47.93;99462.34;4994516;28;20505;-62
2022/11/23 01:16:02;;;;;;;5.80;0.73;;;;;;;16.16;48.58;99466.91;4995338;28;20109;-62
2022/11/23 01:18:28;;;;;;;5.15;0.95;;;;;;;16.19;49.17;99460.31;4993880;28;20117;-62
2022/11/23 01:20:54;;;;;;;2.83;0.85;;;;;;;16.18;48.60;99459.47;4978028;28;20438;-62
2022/11/23 01:23:19;;;;;;;2.72;0.75;;;;;;;16.23;48.28;99461.56;4993642;28;20035;-62
2022/11/23 01:25:44;;;;;;;5.30;0.98;;;;;;;16.23;49.10;99466.97;4961441;28;20634;-62
2022/11/23 01:28:10;;;;;;;6.00;0.60;;;;;;;16.25;47.93;99468.44;4993711;28;20034;-62
2022/11/23 01:30:35;;;;;;;9.45;0.82;;;;;;;16.25;49.43;99468.44;4977659;28;20030;-62
2022/11/23 01:33:02;;;;;;;3.25;1.90;;;;;;;16.27;48.92;99468.25;4978229;28;20038;-63
2022/11/23 01:35:28;;;;;;;2.85;0.65;;;;;;;16.28;49.58;99478.00;4992802;28;20030;-62
2022/11/23 01:37:54;;;;;;;2.92;0.75;;;;;;;16.27;49.28;99476.34;4995296;28;20057;-62
2022/11/23 01:40:19;;;;;;;3.67;1.08;;;;;;;16.28;48.15;99480.72;4977744;28;20054;-62
2022/11/23 01:42:56;;;;;;;3.65;0.40;;;;;;;16.30;48.63;99478.66;4983171;28;20038;-62
2022/11/23 01:45:55;;;;;;;7.28;1.08;;;;;;;16.33;48.33;99489.88;4957670;28;20398;-62
2022/11/23 01:48:25;;;;;;;2.95;1.10;;;;;;;16.32;48.52;99484.69;4942591;28;20041;-62
2022/11/23 01:50:51;;;;;;;3.95;0.70;;;;;;;16.28;48.14;99475.31;4974062;28;20480;-62
2022/11/23 01:53:18;;;;;;;9.18;2.00;;;;;;;16.32;48.32;99487.41;4973635;28;20497;-62
2022/11/23 01:55:45;;;;;;;8.45;1.13;;;;;;;16.31;49.11;99491.97;4973942;28;20031;-62
2022/11/23 01:58:13;;;;;;;5.85;1.60;;;;;;;16.31;48.51;99491.97;4973571;28;20090;-62
2022/11/23 02:00:38;;;;;;;13.65;1.23;;;;;;;16.31;48.98;99496.53;4973714;28;20121;-62
2022/11/23 02:03:05;;;;;;;3.70;0.85;;;;;;;16.30;49.19;99487.56;4958127;28;20547;-62
2022/11/23 02:05:34;;;;;;;2.67;1.05;;;;;;;16.28;49.21;99491.53;4957503;28;20027;-62
2022/11/23 02:08:00;;;;;;;2.05;0.57;;;;;;;16.29;49.11;99493.19;4973580;28;20027;-62
2022/11/23 02:10:25;;;;;;;1.73;0.70;;;;;;;16.29;48.11;99490.50;4973866;28;20031;-62
2022/11/23 02:12:52;;;;;;;2.75;0.80;;;;;;;16.30;47.88;99498.38;4973419;28;20027;-62
2022/11/23 02:15:17;;;;;;;4.40;1.52;;;;;;;16.28;49.05;99486.97;4957415;28;20058;-62
2022/11/23 02:17:43;;;;;;;5.85;1.50;;;;;;;16.29;48.32;99495.91;4975029;28;20023;-62
2022/11/23 02:20:12;;;;;;;4.90;1.25;;;;;;;16.27;48.96;99490.69;4957711;28;20031;-62
2022/11/23 02:22:56;;;;;;;1.85;0.80;;;;;;;16.30;48.67;99494.88;4973584;28;20488;-62
2022/11/23 02:25:48;;;;;;;6.28;1.00;;;;;;;16.29;48.33;99498.59;4973083;28;20109;-62
2022/11/23 02:28:20;;;;;;;5.28;1.17;;;;;;;16.26;48.44;99499.00;4972798;28;20039;-62
2022/11/23 02:30:48;;;;;;;3.90;0.98;;;;;;;16.27;48.82;99495.28;4957658;28;20045;-62
2022/11/23 02:33:13;;;;;;;9.00;1.13;;;;;;;16.27;48.60;99500.69;4973672;28;20514;-62
2022/11/23 02:35:59;;;;;;;12.75;1.73;;;;;;;16.27;47.82;99500.69;4974980;28;20105;-62
2022/11/23 02:38:31;;;;;;;7.00;1.40;;;;;;;16.26;48.04;99501.69;4973298;28;20041;-62
2022/11/23 02:40:57;;;;;;;8.00;1.25;;;;;;;16.29;48.93;99501.31;4973315;28;20072;-62
2022/11/23 02:43:22;;;;;;;9.63;1.00;;;;;;;16.31;48.78;99507.34;4941161;28;20564;-62
2022/11/23 02:45:53;;;;;;;3.67;0.80;;;;;;;16.29;48.38;99504.84;4974056;28;20143;-62
2022/11/23 02:48:19;;;;;;;4.20;1.58;;;;;;;16.29;48.12;99495.91;4972904;28;20055;-62
2022/11/23 02:50:45;;;;;;;6.68;1.30;;;;;;;16.30;48.89;99500.28;4957590;28;20018;-62
2022/11/23 02:53:11;;;;;;;7.75;0.95;;;;;;;16.29;48.91;99498.59;4956870;28;20528;-62
2022/11/23 02:55:37;;;;;;;13.38;1.25;;;;;;;16.27;48.21;99495.28;4973104;28;20027;-63
2022/11/23 02:58:03;;;;;;;9.77;1.55;;;;;;;16.26;49.28;99499.00;4957112;28;20031;-63
2022/11/23 03:00:28;;;;;;;4.60;1.08;;;;;;;16.27;47.80;99498.78;4972859;28;20030;-62
2022/11/23 03:02:53;;;;;;;5.00;1.50;;;;;;;16.27;48.91;99501.50;4941269;28;20031;-62
2022/11/23 03:05:19;;;;;;;7.95;1.23;;;;;;;16.26;48.60;99505.25;4972787;28;20034;-61
2022/11/23 03:07:44;;;;;;;3.22;1.20;;;;;;;16.27;47.68;99495.28;4956565;28;20042;-62
2022/11/23 03:10:10;;;;;;;3.80;1.08;;;;;;;16.26;47.85;99499.00;4956941;28;20120;-61
2022/11/23 03:12:35;;;;;;;9.32;0.90;;;;;;;16.25;48.32;99508.97;4940957;28;20030;-62
2022/11/23 03:15:00;;;;;;;7.28;1.48;;;;;;;16.28;48.48;99499.63;4974603;28;20037;-62
2022/11/23 03:17:26;;;;;;;4.15;1.00;;;;;;;16.28;47.61;99505.03;4973056;28;20035;-61
2022/11/23 03:19:52;;;;;;;5.55;1.30;;;;;;;16.29;47.29;99509.41;4956631;28;20081;-61
2022/11/23 03:22:18;;;;;;;9.43;1.38;;;;;;;16.29;47.30;99509.41;4956876;28;20502;-61
2022/11/23 03:24:43;;;;;;;5.68;1.65;;;;;;;16.28;47.84;99507.72;4972722;28;20049;-62
2022/11/23 03:27:08;;;;;;;10.82;1.17;;;;;;;16.31;49.02;99515.44;4957105;28;20034;-62
2022/11/23 03:29:34;;;;;;;7.00;1.40;;;;;;;16.30;47.63;99513.78;4956777;28;20042;-62
2022/11/23 03:31:59;;;;;;;6.65;1.20;;;;;;;16.30;48.66;99511.09;4972494;28;20069;-62
2022/11/23 03:34:24;;;;;;;9.80;1.23;;;;;;;16.32;48.77;99509.03;4972933;28;20497;-62
2022/11/23 03:36:50;;;;;;;6.50;0.93;;;;;;;16.35;47.54;99507.78;4972649;28;20102;-61
2022/11/23 03:39:15;;;;;;;5.88;2.63;;;;;;;16.37;48.09;99511.94;4973704;28;20062;-62
2022/11/23 03:41:41;;;;;;;8.13;1.30;;;;;;;16.39;48.73;99522.59;4972861;28;20027;-63
2022/11/23 03:44:06;;;;;;;6.13;1.00;;;;;;;16.40;48.21;99511.56;4973910;28;20117;-62
2022/11/23 03:46:31;;;;;;;6.78;1.45;;;;;;;16.36;48.31;99504.06;4972569;28;20046;-61
2022/11/23 03:48:57;;;;;;;7.07;1.33;;;;;;;16.39;47.91;99511.78;4956425;28;20449;-62
2022/11/23 03:51:22;;;;;;;9.05;1.30;;;;;;;16.41;48.67;99518.66;4956530;28;20027;-62
2022/11/23 03:53:48;;;;;;;9.70;1.88;;;;;;;16.39;48.37;99511.78;4972721;28;20535;-62
2022/11/23 03:56:13;;;;;;;11.20;1.20;;;;;;;16.36;47.78;99510.28;4956706;28;20031;-62
2022/11/23 03:58:39;;;;;;;4.63;1.10;;;;;;;16.36;47.65;99515.69;4973880;28;20053;-61
2022/11/23 04:01:04;;;;;;;8.73;0.95;;;;;;;16.35;47.00;99524.84;4975938;28;20089;-62
2022/11/23 04:03:30;;;;;;;4.88;1.35;;;;;;;16.35;47.52;99518.59;4977070;28;20039;-61
2022/11/23 04:05:55;;;;;;;11.85;1.67;;;;;;;16.34;47.45;99515.06;4976257;28;20035;-61
2022/11/23 04:08:20;;;;;;;7.55;1.48;;;;;;;16.30;48.21;99511.09;4976855;28;20031;-61
2022/11/23 04:10:46;;;;;;;4.20;1.17;;;;;;;16.31;48.60;99531.66;4975862;28;20086;-62
2022/11/23 04:13:11;;;;;;;6.93;1.85;;;;;;;16.31;47.48;99523.56;4959545;28;20034;-62
2022/11/23 04:15:37;;;;;;;4.75;1.05;;;;;;;16.27;47.07;99523.09;4976884;28;20027;-62
2022/11/23 04:18:02;;;;;;;8.52;1.10;;;;;;;16.27;48.73;99514.19;4976012;28;20023;-61
2022/11/23 04:20:28;;;;;;;2.25;0.73;;;;;;;16.20;47.70;99521.41;4959510;28;20094;-61
2022/11/23 04:22:53;;;;;;;6.45;0.90;;;;;;;16.18;47.63;99527.00;4975635;28;20519;-61
2022/11/23 04:25:18;;;;;;;5.43;0.90;;;;;;;16.19;48.40;99522.44;4959111;28;20093;-62
2022/11/23 04:27:44;;;;;;;2.50;1.10;;;;;;;16.17;47.63;99516.38;4975410;28;20069;-62
2022/11/23 04:30:10;;;;;;;4.20;1.08;;;;;;;16.18;47.68;99515.38;4975958;28;20039;-62
2022/11/23 04:32:36;;;;;;;9.02;1.02;;;;;;;16.15;47.49;99511.19;4959550;28;20047;-61
2022/11/23 04:35:01;;;;;;;5.15;0.90;;;;;;;16.16;47.42;99509.34;4976858;28;20031;-61
2022/11/23 04:37:26;;;;;;;6.80;1.13;;;;;;;16.15;47.92;99515.75;4975397;28;20103;-62
2022/11/23 04:39:52;;;;;;;11.38;1.45;;;;;;;16.15;48.43;99516.59;4959777;28;20078;-62
2022/11/23 04:42:17;;;;;;;1.80;0.40;;;;;;;16.17;48.72;99513.69;4958944;28;20037;-62
2022/11/23 04:44:43;;;;;;;6.00;1.10;;;;;;;16.13;47.23;99515.97;4975677;28;20027;-62
2022/11/23 04:47:09;;;;;;;11.02;1.40;;;;;;;16.09;48.50;99514.69;4974968;28;20039;-62
2022/11/23 04:49:34;;;;;;;4.65;0.90;;;;;;;16.12;47.43;99513.44;4974950;28;20031;-62
2022/11/23 04:52:00;;;;;;;12.55;1.58;;;;;;;16.12;48.31;99510.75;4975032;28;20381;-62
2022/11/23 04:54:25;;;;;;;10.07;1.25;;;;;;;16.11;48.19;99512.59;4974978;28;20031;-62
2022/11/23 04:56:52;;;;;;;5.78;0.93;;;;;;;16.11;48.19;99507.22;4975456;28;20033;-62
2022/11/23 04:59:18;;;;;;;2.85;0.70;;;;;;;16.13;47.52;99512.44;4976433;28;20409;-62
2022/11/23 05:01:43;;;;;;;5.63;0.65;;;;;;;16.12;47.77;99517.00;4974853;28;20035;-62
2022/11/23 05:04:09;;;;;;;4.45;1.02;;;;;;;16.15;48.10;99507.66;4975855;28;20100;-62
2022/11/23 05:06:34;;;;;;;4.90;1.15;;;;;;;16.17;47.23;99510.97;4974534;28;20043;-67
2022/11/23 05:08:59;;;;;;;10.02;1.30;;;;;;;16.14;47.66;99495.16;4976198;28;20632;-62
2022/11/23 05:11:25;;;;;;;8.20;1.45;;;;;;;16.11;47.48;99500.97;4974537;28;20035;-62
2022/11/23 05:13:51;;;;;;;4.32;0.85;;;;;;;16.11;48.29;99500.97;4975833;28;20041;-62
2022/11/23 05:16:16;;;;;;;4.88;1.30;;;;;;;16.07;48.34;99494.31;4958460;28;20118;-63
2022/11/23 05:18:42;;;;;;;12.80;1.50;;;;;;;16.04;47.65;99500.09;4975787;28;20481;-61
2022/11/23 05:21:07;;;;;;;6.05;1.00;;;;;;;16.02;48.49;99494.91;4976102;28;20026;-62
2022/11/23 05:23:33;;;;;;;7.70;1.45;;;;;;;16.01;48.13;99500.47;4958484;28;20031;-62
2022/11/23 05:25:58;;;;;;;8.80;1.20;;;;;;;16.02;48.08;99496.75;4958314;28;20038;-62
2022/11/23 05:28:23;;;;;;;11.98;1.10;;;;;;;16.01;47.65;99501.31;4958458;28;20543;-62
2022/11/23 05:30:49;;;;;;;1.92;0.80;;;;;;;16.02;47.11;99499.47;4975968;28;20396;-62
2022/11/23 05:33:14;;;;;;;4.97;1.05;;;;;;;16.02;48.23;99500.31;4942067;28;20026;-62
2022/11/23 05:35:40;;;;;;;7.75;1.15;;;;;;;16.05;48.65;99504.47;4975616;28;20035;-62
2022/11/23 05:38:05;;;;;;;12.73;1.27;;;;;;;16.05;47.52;99499.88;4957994;28;20039;-62
2022/11/23 05:40:31;;;;;;;6.05;1.15;;;;;;;16.06;47.52;99500.72;4974094;28;20038;-62
2022/11/23 05:42:57;;;;;;;15.98;1.15;;;;;;;16.04;48.67;99495.53;4974135;28;20100;-63
2022/11/23 05:45:23;;;;;;;7.65;1.20;;;;;;;16.03;47.47;99503.81;4973820;28;20030;-62
2022/11/23 05:47:54;;;;;;;5.25;1.40;;;;;;;16.02;48.66;99497.59;4974324;28;20029;-63
2022/11/23 05:50:23;;;;;;;5.30;0.90;;;;;;;16.06;48.20;99498.03;4974383;28;20030;-62
2022/11/23 05:52:48;;;;;;;11.27;1.08;;;;;;;16.04;48.14;99505.50;4957744;28;20046;-62
2022/11/23 05:55:14;;;;;;;6.68;1.50;;;;;;;16.04;47.31;99506.34;4958115;28;20378;-62
2022/11/23 05:57:40;;;;;;;6.45;1.17;;;;;;;16.03;48.63;99498.41;4958557;28;20031;-63
2022/11/23 06:00:09;;;;;;;5.00;1.48;;;;;;;16.00;47.23;99494.25;4959739;28;20551;-63
2022/11/23 06:02:34;;;;;;;6.53;1.25;;;;;;;16.04;48.26;99497.41;4958905;28;20069;-63
2022/11/23 06:05:00;;;;;;;5.22;1.33;;;;;;;16.04;47.40;99500.09;4978782;28;20066;-63
2022/11/23 06:07:25;;;;;;;6.32;1.25;;;;;;;16.08;47.42;99498.69;4978458;28;20042;-63
2022/11/23 06:09:51;;;;;;;7.13;1.20;;;;;;;16.10;47.24;99499.31;4978232;28;20085;-63
2022/11/23 06:12:16;;;;;;;3.90;0.95;;;;;;;16.08;47.84;99495.97;4977892;28;20034;-62
2022/11/23 06:14:41;;;;;;;6.28;0.90;;;;;;;16.13;47.30;99504.31;4979716;28;20158;-63
2022/11/23 06:17:07;;;;;;;6.80;2.38;;;;;;;16.12;47.98;99502.63;4978045;28;20022;-62
2022/11/23 06:19:33;;;;;;;10.95;1.63;;;;;;;16.14;47.10;99505.97;4978247;28;20042;-63
2022/11/23 06:21:59;;;;;;;9.25;1.55;;;;;;;16.11;47.88;99496.41;4993384;28;20451;-62
2022/11/23 06:24:24;;;;;;;2.38;0.80;;;;;;;16.13;47.86;99502.47;4994281;28;20072;-63
2022/11/23 06:26:51;;;;;;;3.65;1.00;;;;;;;16.09;46.77;99498.47;4994564;28;20165;-63
2022/11/23 06:29:17;;;;;;;6.20;0.93;;;;;;;16.11;47.82;99495.56;4978380;28;20042;-64
2022/11/23 06:31:43;;;;;;;6.80;0.82;;;;;;;16.06;47.40;99487.22;4977213;28;20061;-62
2022/11/23 06:34:08;;;;;;;18.10;1.67;;;;;;;16.05;46.39;99501.78;4995038;28;20038;-63
2022/11/23 06:36:34;;;;;;;10.38;1.33;;;;;;;16.03;48.09;99503.81;4978779;28;20105;-64
2022/11/23 06:39:00;;;;;;;6.07;1.40;;;;;;;15.98;46.77;99501.72;4978130;28;20034;-63
2022/11/23 06:41:25;;;;;;;4.72;1.35;;;;;;;15.93;46.95;99500.63;4962501;28;20034;-63
2022/11/23 06:43:51;;;;;;;6.47;1.67;;;;;;;15.88;47.06;99495.84;4993823;28;20098;-63
2022/11/23 06:46:17;;;;;;;6.40;1.02;;;;;;;15.93;46.69;99503.34;4994136;28;20515;-62
2022/11/23 06:48:43;;;;;;;5.85;1.25;;;;;;;15.91;46.98;99502.72;4960501;28;20035;-63
2022/11/23 06:51:09;;;;;;;10.25;1.20;;;;;;;15.89;47.00;99505.59;4959997;28;20374;-62
2022/11/23 06:53:34;;;;;;;16.10;1.33;;;;;;;15.87;47.09;99513.06;4958407;28;20051;-62
2022/11/23 06:56:00;;;;;;;5.65;0.95;;;;;;;15.90;46.31;99528.03;4958091;28;20565;-62
2022/11/23 06:58:29;;;;;;;9.40;1.58;;;;;;;15.87;47.33;99520.31;4958336;28;20046;-62
2022/11/23 07:01:00;;;;;;;5.97;1.30;;;;;;;15.82;46.95;99522.78;4975507;28;20058;-62
2022/11/23 07:03:26;;;;;;;4.63;0.80;;;;;;;15.78;46.85;99526.88;4974811;28;20547;-63
2022/11/23 07:05:51;;;;;;;6.32;0.90;;;;;;;15.81;46.63;99534.59;4960052;28;20039;-63
2022/11/23 07:08:19;;;;;;;7.82;1.58;;;;;;;15.77;47.16;99539.56;4943771;28;20042;-68
2022/11/23 07:10:45;;;;;;;11.30;1.58;;;;;;;15.71;46.67;99529.53;4959975;28;20035;-63
2022/11/23 07:13:11;;;;;;;6.40;0.82;;;;;;;15.72;47.01;99529.34;4974548;28;20058;-62
2022/11/23 07:15:37;;;;;;;9.45;1.80;;;;;;;15.72;46.75;99537.44;4951157;28;20031;-63
2022/11/23 07:18:04;;;;;;;10.23;1.27;;;;;;;15.69;46.93;99532.41;4975945;28;20026;-64
2022/11/23 07:20:29;;;;;;;8.32;1.00;;;;;;;15.70;46.23;99542.19;4958858;28;20135;-62
2022/11/23 07:23:03;;;;;;;15.63;1.48;;;;;;;15.69;47.29;99545.91;4959529;28;20038;-63
2022/11/23 07:25:30;;;;;;;8.13;1.75;;;;;;;15.68;46.32;99555.06;4957962;28;20062;-63
2022/11/23 07:28:00;;;;;;;2.55;0.82;;;;;;;15.66;45.94;99562.50;4958457;28;20027;-62
2022/11/23 07:30:26;;;;;;;9.20;1.13;;;;;;;15.66;46.81;99567.09;4958359;28;20027;-63
2022/11/23 07:32:51;;;;;;;4.85;0.82;;;;;;;15.66;46.47;99578.69;4974317;28;20025;-63
2022/11/23 07:35:18;;;;;;;5.35;1.58;;;;;;;15.66;47.29;99580.59;4976540;28;20037;-63
2022/11/23 07:37:44;;;;;;;12.90;1.20;;;;;;;15.64;46.25;99580.75;4960633;28;20530;-63
2022/11/23 07:40:09;;;;;;;8.48;0.82;;;;;;;15.64;46.79;99579.91;4978351;28;20038;-63
2022/11/23 07:42:35;;;;;;;5.90;1.20;;;;;;;15.60;46.98;99574.09;4976956;28;20117;-63
2022/11/23 07:45:01;;;;;;;2.25;0.75;;;;;;;15.63;46.04;99583.66;4978798;28;20106;-63
2022/11/23 07:47:27;;;;;;;5.10;1.15;;;;;;;15.60;46.75;99568.69;4977257;28;20035;-63
2022/11/23 07:49:52;;;;;;;9.77;1.08;;;;;;;15.66;45.87;99592.19;4944987;28;20037;-63
2022/11/23 07:52:18;;;;;;;8.82;1.02;;;;;;;15.65;46.30;99593.25;4978097;28;20058;-63
2022/11/23 07:54:43;;;;;;;2.97;0.55;;;;;;;15.67;46.56;99587.63;4976969;28;20392;-63
2022/11/23 07:57:09;;;;;;;3.47;0.50;;;;;;;15.66;47.21;99594.88;4961281;28;20065;-63
2022/11/23 07:59:34;;;;;;;6.50;0.68;;;;;;;15.69;45.98;99593.66;4960986;28;20031;-63
2022/11/23 08:02:00;;;;;;;3.75;0.70;;;;;;;15.67;46.50;99598.44;4977922;28;20042;-63
2022/11/23 08:04:26;;;;;;;10.35;0.98;;;;;;;15.65;45.73;99598.63;4960969;28;20040;-63
2022/11/23 08:06:52;;;;;;;3.08;1.23;;;;;;;15.65;45.94;99598.63;4976758;28;20054;-63
2022/11/23 08:09:18;;;;;;;5.85;1.25;;;;;;;15.63;47.11;99600.66;4976084;28;20034;-66
2022/11/23 08:11:44;;;;;;;6.05;1.45;;;;;;;15.63;47.13;99611.47;4976396;28;20428;-63
2022/11/23 08:14:09;;;;;;;5.55;1.75;;;;;;;15.63;46.21;99602.56;4976203;28;20118;-63
2022/11/23 08:16:34;;;;;;;9.82;1.70;;;;;;;15.63;45.86;99611.47;4976444;28;20511;-63
2022/11/23 08:19:00;;;;;;;6.68;0.80;;;;;;;15.65;45.90;99611.28;4976439;28;20089;-63
2022/11/23 08:21:25;;;;;;;8.32;1.63;;;;;;;15.65;46.25;99597.78;4976375;28;20035;-63
2022/11/23 08:23:50;;;;;;;4.80;1.13;;;;;;;15.66;46.01;99607.56;4976764;28;20109;-63
2022/11/23 08:26:16;;;;;;;7.43;1.00;;;;;;;15.68;45.26;99610.91;4959492;28;20039;-63
2022/11/23 08:28:41;;;;;;;5.40;0.85;;;;;;;15.68;45.41;99606.34;4976065;28;20516;-63
2022/11/23 08:31:08;;;;;;;6.47;1.65;;;;;;;15.71;45.90;99622.19;4977371;28;20043;-63
2022/11/23 08:33:33;;;;;;;7.78;1.50;;;;;;;15.74;46.12;99616.34;4976290;28;20030;-63
2022/11/23 08:36:05;;;;;;;9.20;1.25;;;;;;;15.78;45.83;99624.09;4960890;28;20038;-63
2022/11/23 08:38:30;;;;;;;7.57;1.00;;;;;;;15.90;45.30;99627.97;4976142;28;20059;-63
2022/11/23 08:41:04;;;;;;;11.52;0.90;;;;;;;15.97;45.12;99621.56;4976346;28;20066;-63
2022/11/23 08:43:29;;;;;;;3.30;0.60;;;;;;;16.03;45.34;99606.47;4976187;28;20038;-63
2022/11/23 08:45:56;;;;;;;10.30;1.80;;;;;;;16.14;45.99;99614.03;4975740;28;20062;-64
2022/11/23 08:48:21;;;;;;;4.70;1.08;;;;;;;16.28;46.29;99622.06;4975363;28;20035;-63
2022/11/23 08:50:46;;;;;;;10.13;1.25;;;;;;;16.39;45.31;99622.59;4976452;28;20035;-63
2022/11/23 08:53:12;;;;;;;5.43;1.17;;;;;;;16.39;45.78;99614.47;4959557;28;20047;-63
2022/11/23 08:55:37;;;;;;;3.33;0.70;;;;;;;16.39;44.50;99612.59;4975805;28;20038;-63
2022/11/23 08:58:03;;;;;;;3.40;0.82;;;;;;;16.47;45.46;99608.91;4943683;28;20397;-63
2022/11/23 09:00:28;;;;;;;8.27;1.27;;;;;;;16.46;44.75;99618.91;4975272;28;20066;-63
2022/11/23 09:02:57;;;;;;;9.88;1.27;;;;;;;16.51;45.84;99618.28;4975938;28;20160;-63
2022/11/23 09:05:22;;;;;;;6.35;0.80;;;;;;;16.51;44.63;99612.88;4959847;28;20069;-63
2022/11/23 09:07:47;;;;;;;4.38;1.20;;;;;;;16.56;44.39;99619.41;4975239;28;20114;-63
2022/11/23 09:10:13;;;;;;;7.75;1.15;;;;;;;16.64;45.10;99599.47;4975003;28;20035;-63
2022/11/23 09:12:38;;;;;;;5.30;1.15;;;;;;;16.77;45.30;99613.09;4975118;28;20436;-64
2022/11/23 09:15:04;;;;;;;5.80;0.95;;;;;;;16.83;44.53;99604.19;4959360;28;20109;-63
2022/11/23 09:17:32;;;;;;;12.75;1.33;;;;;;;16.89;44.32;99604.22;4976286;28;20023;-63
2022/11/23 09:19:58;;;;;;;8.75;1.05;;;;;;;17.04;43.90;99597.84;4976171;28;20027;-64
2022/11/23 09:22:24;;;;;;;10.70;1.48;;;;;;;17.38;43.63;99589.66;4974553;28;20412;-63
2022/11/23 09:24:49;;;;;;;3.15;1.00;;;;;;;17.78;42.74;99586.03;4958512;28;20042;-63
2022/11/23 09:27:14;;;;;;;7.78;1.58;;;;;;;18.13;42.63;99592.13;4976110;28;20046;-64
2022/11/23 09:29:40;;;;;;;8.07;1.05;;;;;;;18.46;42.54;99586.69;4974999;28;20033;-63
2022/11/23 09:32:05;;;;;;;8.02;1.13;;;;;;;18.85;41.79;99594.78;4974726;28;20042;-64
2022/11/23 09:34:30;;;;;;;10.27;1.85;;;;;;;19.24;41.93;99590.25;4974585;28;20122;-63
2022/11/23 09:36:56;;;;;;;8.00;1.95;;;;;;;19.61;41.15;99587.59;4974510;28;20408;-63
2022/11/23 09:39:22;;;;;;;7.95;1.73;;;;;;;19.98;41.03;99566.88;4958308;28;20034;-64
2022/11/23 09:42:06;;;;;;;4.38;0.90;;;;;;;20.37;40.61;99570.34;4974725;28;20542;-63
2022/11/23 09:44:37;;;;;;;12.07;1.30;;;;;;;20.65;40.05;99562.53;4974292;28;20077;-63
2022/11/23 09:47:05;;;;;;;8.93;1.98;;;;;;;20.85;40.31;99557.72;4975516;28;20130;-64
2022/11/23 09:49:39;;;;;;;5.68;1.10;;;;;;;21.04;39.22;99551.22;4975351;28;20062;-64
2022/11/23 09:52:13;;;;;;;2.05;0.70;;;;;;;21.23;39.42;99554.75;4974157;28;20039;-64
2022/11/23 09:54:39;;;;;;;7.85;0.80;;;;;;;21.41;39.83;99552.84;4973952;28;20041;-64
2022/11/23 09:57:04;;;;;;;3.03;0.95;;;;;;;21.58;39.71;99546.75;4973830;28;20047;-67
2022/11/23 09:59:29;;;;;;;8.05;1.23;;;;;;;21.77;38.51;99540.19;4942243;28;20037;-64
2022/11/23 10:01:56;;;;;;;6.25;0.73;;;;;;;21.88;38.24;99533.94;4975247;28;20053;-65
2022/11/23 10:04:21;;;;;;;3.30;1.00;;;;;;;22.02;38.48;99544.41;4973719;28;20035;-66
2022/11/23 10:06:52;;;;;;;2.42;0.93;;;;;;;22.16;38.59;99533.28;4957738;28;20038;-64
2022/11/23 10:09:28;;;;;;;6.65;0.70;;;;;;;22.44;38.70;99525.22;4957915;28;20023;-64
2022/11/23 10:12:15;;;;;;;4.47;0.95;;;;;;;22.80;37.41;99532.34;4974271;28;20030;-64
2022/11/23 10:14:56;;;;;;;7.78;0.85;;;;;;;22.96;36.93;99529.69;4974974;28;20492;-64
2022/11/23 10:17:31;;;;;;;2.70;0.70;;;;;;;23.02;38.22;99523.25;4973458;28;20031;-63
2022/11/23 10:20:12;;;;;;;3.67;0.80;;;;;;;23.04;37.61;99514.81;4973414;28;20047;-64
2022/11/23 10:23:09;;;;;;;4.22;1.05;;;;;;;23.10;36.99;99514.69;4973102;28;20036;-64
2022/11/23 10:25:48;;;;;;;2.08;0.52;;;;;;;23.20;37.11;99503.94;4941952;28;20047;-64
2022/11/23 10:28:19;;;;;;;1.77;0.57;;;;;;;23.26;36.54;99502.13;4973279;28;20043;-64
2022/11/23 10:31:11;;;;;;;7.78;1.23;;;;;;;23.35;36.33;99506.16;4973505;28;20027;-64
2022/11/23 10:33:52;;;;;;;2.75;1.13;;;;;;;23.41;36.97;99505.22;4963368;28;20037;-64
2022/11/23 10:36:18;;;;;;;4.78;0.63;;;;;;;23.55;36.78;99495.63;4974692;28;20476;-64
2022/11/23 10:38:46;;;;;;;1.95;0.70;;;;;;;23.64;36.85;99502.38;4974313;28;20094;-64
2022/11/23 10:41:12;;;;;;;5.07;0.52;;;;;;;23.76;36.80;99492.16;4973539;28;20055;-64
2022/11/23 10:43:43;;;;;;;3.58;0.40;;;;;;;23.81;36.51;99485.97;4973235;28;20069;-76
2022/11/23 10:46:28;;;;;;;1.33;0.63;;;;;;;23.87;36.29;99486.88;4975585;28;20038;-67
2022/11/23 10:48:54;;;;;;;2.28;0.60;;;;;;;23.86;35.82;99490.69;4992890;28;20038;-69
2022/11/23 10:51:31;;;;;;;2.65;0.85;;;;;;;23.94;35.19;99503.94;4976241;28;20118;-64
2022/11/23 10:54:03;;;;;;;1.40;0.63;;;;;;;24.00;35.63;99492.84;4992652;28;20108;-64
2022/11/23 10:56:29;;;;;;;2.75;0.47;;;;;;;24.12;36.26;99490.06;4992738;28;20042;-64
2022/11/23 10:58:54;;;;;;;2.67;0.45;;;;;;;24.24;35.76;99488.03;4992735;28;20400;-64
2022/11/23 11:01:22;;;;;;;4.28;0.93;;;;;;;24.11;36.30;99488.41;4976592;28;20038;-64
2022/11/23 11:03:47;;;;;;;5.72;0.60;;;;;;;24.08;35.82;99470.53;4993005;28;20030;-64
2022/11/23 11:06:27;;;;;;;1.00;0.30;;;;;;;23.55;36.03;99468.28;4960505;28;20121;-64
2022/11/23 11:08:54;;;;;;;2.35;0.57;;;;;;;23.72;35.49;99474.63;4997116;28;20026;-64
2022/11/23 11:11:24;;;;;;;4.15;0.73;;;;;;;23.73;35.26;99470.78;4980638;28;20125;-64
2022/11/23 11:13:50;;;;;;;2.92;0.82;;;;;;;23.75;35.48;99452.25;4997744;28;20523;-64
2022/11/23 11:16:31;;;;;;;6.70;0.95;;;;;;;23.75;35.07;99456.88;4996136;28;20030;-64
2022/11/23 11:18:56;;;;;;;3.28;0.95;;;;;;;23.70;35.82;99463.06;4996451;28;20030;-64
2022/11/23 11:21:27;;;;;;;3.25;1.27;;;;;;;23.74;35.63;99444.28;4996472;28;20411;-64
2022/11/23 11:23:58;;;;;;;4.95;0.63;;;;;;;23.82;35.14;99462.16;4996991;28;20026;-63
2022/11/23 11:26:26;;;;;;;4.28;1.05;;;;;;;23.84;35.39;99447.19;4979720;28;20026;-64
2022/11/23 11:28:53;;;;;;;4.47;0.52;;;;;;;23.81;35.56;99458.63;4996505;28;20034;-64
2022/11/23 11:31:43;;;;;;;6.00;0.73;;;;;;;23.67;34.64;99447.16;4997411;28;20492;-64
2022/11/23 11:34:26;;;;;;;1.50;0.52;;;;;;;23.74;35.14;99445.09;4996492;28;20037;-64